Time;durP1;ratioP1;P1;durP2;ratioP2;P2;SDS_P1;SDS_P2;PMS_P1;PMS_P2;Temp;Humidity;BMP_temperature;BMP_pressure;BME280_temperature;BME280_humidity;BME280_pressure;Samples;Min_cycle;Max_cycle;Signal;HPM_P1;HPM_P2
2021/11/02 00:00:58;;;;;;;4.60;1.60;;;14.80;81.30;;;;;;5052705;28;20029;-76
2021/11/02 00:03:24;;;;;;;4.15;1.48;;;14.80;81.20;;;;;;5052565;28;20025;-76
2021/11/02 00:05:49;;;;;;;4.20;1.55;;;14.80;81.80;;;;;;5052246;28;20055;-76
2021/11/02 00:08:16;;;;;;;10.05;2.28;;;14.80;81.40;;;;;;5052609;28;20668;-76
2021/11/02 00:10:41;;;;;;;7.95;1.80;;;14.80;81.40;;;;;;5052462;28;20387;-76
2021/11/02 00:13:07;;;;;;;5.88;1.73;;;14.80;81.30;;;;;;5053701;28;20032;-75
2021/11/02 00:15:34;;;;;;;6.07;1.80;;;14.80;81.40;;;;;;5052109;28;20474;-76
2021/11/02 00:18:05;;;;;;;5.45;1.60;;;14.80;81.40;;;;;;5051813;28;20057;-77
2021/11/02 00:20:32;;;;;;;5.22;1.30;;;14.80;81.50;;;;;;5052358;28;20099;-76
2021/11/02 00:22:59;;;;;;;4.53;1.30;;;14.80;81.40;;;;;;5053387;28;20021;-76
2021/11/02 00:25:30;;;;;;;3.70;1.30;;;14.80;81.50;;;;;;5053258;28;20040;-77
2021/11/02 00:27:57;;;;;;;7.38;1.45;;;14.80;81.50;;;;;;5051424;28;20493;-78
2021/11/02 00:30:24;;;;;;;5.38;1.70;;;14.80;81.50;;;;;;5052180;28;20040;-77
2021/11/02 00:32:52;;;;;;;4.45;1.17;;;14.80;81.50;;;;;;5052017;28;20021;-78
2021/11/02 00:35:20;;;;;;;4.43;1.33;;;14.80;81.50;;;;;;5051787;28;20024;-77
2021/11/02 00:37:46;;;;;;;5.57;1.50;;;14.80;81.30;;;;;;5051867;28;20044;-77
2021/11/02 00:40:14;;;;;;;3.88;1.52;;;14.80;81.40;;;;;;5051924;28;20047;-77
2021/11/02 00:42:42;;;;;;;2.72;1.40;;;14.80;81.40;;;;;;5051984;28;20494;-78
2021/11/02 00:45:11;;;;;;;4.15;1.30;;;14.80;81.40;;;;;;5051699;28;20025;-78
2021/11/02 00:47:37;;;;;;;3.05;1.30;;;14.80;81.30;;;;;;5051892;28;20029;-77
2021/11/02 00:50:10;;;;;;;3.65;1.30;;;14.80;81.40;;;;;;5053065;28;20112;-78
2021/11/02 00:52:40;;;;;;;6.05;1.55;;;14.80;81.30;;;;;;5051918;28;20025;-76
2021/11/02 00:55:07;;;;;;;4.55;1.20;;;14.80;81.30;;;;;;5052486;28;20032;-76
2021/11/02 00:57:34;;;;;;;4.50;1.30;;;14.80;81.40;;;;;;5051560;28;20079;-77
2021/11/02 00:59:59;;;;;;;4.32;1.40;;;14.80;81.40;;;;;;5052796;28;20055;-77
2021/11/02 01:02:25;;;;;;;4.32;1.23;;;14.80;81.40;;;;;;5051479;28;20064;-77
2021/11/02 01:04:52;;;;;;;4.45;1.50;;;14.80;81.40;;;;;;5051516;28;20027;-77
2021/11/02 01:07:18;;;;;;;5.43;1.20;;;14.80;81.40;;;;;;5050443;28;20044;-77
2021/11/02 01:09:44;;;;;;;12.52;1.80;;;14.80;81.40;;;;;;5052678;28;20029;-77
2021/11/02 01:12:11;;;;;;;7.22;1.48;;;14.80;82.00;;;;;;5052663;28;20029;-78
2021/11/02 01:14:37;;;;;;;4.90;1.52;;;14.80;81.50;;;;;;5051376;28;20064;-76
2021/11/02 01:17:04;;;;;;;3.30;1.23;;;14.80;81.50;;;;;;5052347;28;20021;-77
2021/11/02 01:19:29;;;;;;;3.92;1.33;;;14.80;81.50;;;;;;5051272;28;20017;-76
2021/11/02 01:21:55;;;;;;;4.82;1.40;;;14.70;81.50;;;;;;5052541;28;20694;-76
2021/11/02 01:24:21;;;;;;;4.97;1.38;;;14.80;81.60;;;;;;5051299;28;20025;-76
2021/11/02 01:26:47;;;;;;;7.30;1.45;;;14.80;81.60;;;;;;5052175;28;20025;-77
2021/11/02 01:29:15;;;;;;;4.53;1.33;;;14.80;81.20;;;;;;5052511;28;20029;-76
2021/11/02 01:31:41;;;;;;;5.07;1.50;;;14.80;81.10;;;;;;5051229;28;20441;-77
2021/11/02 01:34:08;;;;;;;4.28;1.30;;;14.80;81.40;;;;;;5051205;28;20025;-76
2021/11/02 01:36:33;;;;;;;3.88;1.35;;;14.80;81.40;;;;;;5050730;28;20048;-76
2021/11/02 01:38:59;;;;;;;4.70;1.30;;;14.80;81.60;;;;;;5053359;28;20017;-77
2021/11/02 01:41:26;;;;;;;4.70;1.30;;;14.80;81.50;;;;;;5059007;28;20536;-78
2021/11/02 01:43:53;;;;;;;4.18;1.25;;;14.90;81.60;;;;;;5057708;28;20112;-76
2021/11/02 01:46:25;;;;;;;4.32;1.40;;;14.90;81.70;;;;;;5057493;28;20039;-77
2021/11/02 01:48:55;;;;;;;4.40;1.48;;;14.90;81.50;;;;;;5059170;28;20025;-76
2021/11/02 01:51:22;;;;;;;5.50;1.17;;;14.90;81.60;;;;;;5057599;28;20048;-76
2021/11/02 01:53:48;;;;;;;4.22;1.10;;;14.90;81.50;;;;;;5057548;28;20024;-75
2021/11/02 01:56:14;;;;;;;3.33;1.30;;;14.90;81.40;;;;;;5058492;28;20558;-76
2021/11/02 01:58:43;;;;;;;3.97;1.30;;;14.90;81.50;;;;;;5058842;28;20104;-76
2021/11/02 02:01:13;;;;;;;3.97;1.30;;;14.90;81.50;;;;;;5058895;28;20070;-76
2021/11/02 02:03:57;;;;;;;4.00;1.25;;;14.90;81.40;;;;;;5057551;28;20031;-75
2021/11/02 02:07:04;;;;;;;4.07;1.33;;;14.90;81.70;;;;;;5057137;28;20104;-76
2021/11/02 02:09:43;;;;;;;3.25;1.17;;;14.90;81.50;;;;;;5040154;28;20037;-76
2021/11/02 02:12:41;;;;;;;4.28;1.45;;;14.90;81.60;;;;;;5057436;28;20021;-75
2021/11/02 02:15:16;;;;;;;4.15;1.20;;;14.80;81.60;;;;;;5058367;28;20041;-76
2021/11/02 02:18:02;;;;;;;3.42;1.38;;;14.80;81.70;;;;;;5057538;28;20025;-76
2021/11/02 02:21:08;;;;;;;3.95;1.20;;;14.80;81.80;;;;;;5058676;28;20021;-76
2021/11/02 02:24:02;;;;;;;3.70;1.08;;;14.80;81.80;;;;;;5029200;28;20029;-76
2021/11/02 02:26:42;;;;;;;4.05;1.20;;;14.70;81.80;;;;;;5057203;28;20025;-76
2021/11/02 02:29:08;;;;;;;5.63;1.52;;;14.80;81.90;;;;;;5057366;28;20021;-77
2021/11/02 02:31:40;;;;;;;6.85;1.25;;;14.70;81.90;;;;;;5057358;28;20021;-75
2021/11/02 02:34:11;;;;;;;2.72;1.00;;;14.70;81.90;;;;;;5057318;28;20028;-76
2021/11/02 02:36:39;;;;;;;3.97;1.13;;;14.70;82.00;;;;;;5056989;28;20040;-76
2021/11/02 02:39:07;;;;;;;5.90;1.42;;;14.70;82.10;;;;;;5057259;28;20021;-76
2021/11/02 02:41:32;;;;;;;4.07;1.13;;;14.70;82.00;;;;;;5057303;28;20530;-75
2021/11/02 02:43:59;;;;;;;4.68;1.40;;;14.70;82.10;;;;;;5057228;28;20185;-77
2021/11/02 02:46:27;;;;;;;4.13;1.13;;;14.70;82.10;;;;;;5056931;28;20053;-76
2021/11/02 02:48:54;;;;;;;4.70;1.40;;;14.70;82.20;;;;;;5057083;28;20044;-76
2021/11/02 02:51:21;;;;;;;3.08;1.00;;;14.70;82.20;;;;;;5054246;28;20021;-76
2021/11/02 02:53:49;;;;;;;3.22;1.20;;;14.70;82.20;;;;;;5055245;28;20045;-76
2021/11/02 02:56:17;;;;;;;3.75;1.35;;;14.70;82.20;;;;;;5053638;28;20112;-76
2021/11/02 02:58:45;;;;;;;3.83;1.33;;;14.70;82.30;;;;;;5053903;28;20147;-75
2021/11/02 03:01:14;;;;;;;4.03;1.15;;;14.70;82.30;;;;;;5055031;28;20036;-76
2021/11/02 03:03:52;;;;;;;4.05;1.10;;;14.70;82.20;;;;;;5053810;28;20021;-76
2021/11/02 03:06:21;;;;;;;3.10;1.30;;;14.70;82.10;;;;;;5053309;28;20025;-76
2021/11/02 03:08:48;;;;;;;3.15;1.08;;;14.70;82.70;;;;;;5053810;28;20022;-76
2021/11/02 03:11:14;;;;;;;4.43;1.17;;;14.70;82.30;;;;;;5055077;28;20023;-77
2021/11/02 03:13:45;;;;;;;3.63;1.30;;;14.70;82.30;;;;;;5053563;28;20391;-76
2021/11/02 03:16:24;;;;;;;5.38;1.33;;;14.70;82.30;;;;;;5054627;28;20028;-76
2021/11/02 04:42:09;;;;;;;3.67;1.10;;;14.80;82.30;;;;;;5053383;28;20062;-77
2021/11/02 04:43:35;;;;;;;3.33;1.25;;;14.80;82.40;;;;;;5052979;28;20032;-76
2021/11/02 05:19:49;;;;;;;5.03;1.30;;;14.70;82.70;;;;;;5052380;28;20078;-76
2021/11/02 05:20:34;;;;;;;5.80;1.67;;;14.70;83.00;;;;;;5052427;28;20052;-75
2021/11/02 05:47:34;;;;;;;4.25;1.70;;;14.60;83.00;;;;;;5052194;28;20060;-76
2021/11/02 05:50:11;;;;;;;3.85;1.48;;;14.60;83.10;;;;;;5051444;28;20437;-76
2021/11/02 05:53:23;;;;;;;3.03;1.30;;;14.60;83.10;;;;;;5052172;28;20086;-76
2021/11/02 06:00:54;;;;;;;3.85;1.33;;;14.60;83.00;;;;;;5052030;28;20025;-76
2021/11/02 06:05:59;;;;;;;4.45;1.45;;;14.60;82.90;;;;;;5051971;28;20119;-76
2021/11/02 06:28:38;;;;;;;4.20;1.73;;;14.60;82.80;;;;;;5043448;28;20132;-79
2021/11/02 06:31:10;;;;;;;4.75;1.50;;;14.60;82.80;;;;;;5060498;28;20028;-76
2021/11/02 06:33:46;;;;;;;4.22;1.33;;;14.60;82.80;;;;;;5046091;28;20024;-78
2021/11/02 06:36:48;;;;;;;3.97;1.30;;;14.60;82.80;;;;;;5034376;28;20021;-78
2021/11/02 06:56:34;;;;;;;4.47;1.40;;;14.60;82.90;;;;;;5010410;28;20041;-77
2021/11/02 06:59:38;;;;;;;3.55;1.55;;;14.60;82.80;;;;;;5030066;28;20124;-76
2021/11/02 07:17:05;;;;;;;6.45;2.15;;;14.70;82.10;;;;;;5046844;28;20040;-78
2021/11/02 07:19:09;;;;;;;4.32;1.60;;;14.80;81.90;;;;;;5043058;28;20060;-78
2021/11/02 07:24:11;;;;;;;3.92;1.30;;;15.00;81.50;;;;;;5051883;28;20029;-80
2021/11/02 07:26:45;;;;;;;3.10;1.20;;;15.00;81.50;;;;;;5051033;28;20473;-81
2021/11/02 07:29:37;;;;;;;4.85;1.40;;;15.10;81.20;;;;;;5048020;28;20045;-80
2021/11/02 08:48:07;;;;;;;9.68;2.97;;;15.60;74.50;;;;;;5044035;28;20649;-77
2021/11/02 08:50:40;;;;;;;10.50;2.90;;;15.60;74.50;;;;;;5033365;28;20029;-76
2021/11/02 08:53:11;;;;;;;10.55;2.67;;;15.60;74.30;;;;;;5041773;28;20021;-77
2021/11/02 08:55:37;;;;;;;11.45;2.58;;;15.60;74.30;;;;;;5037075;28;20033;-77
2021/11/02 08:58:04;;;;;;;7.35;2.30;;;15.70;74.20;;;;;;5038781;28;20044;-79
2021/11/02 09:00:31;;;;;;;5.78;2.60;;;15.60;74.10;;;;;;5045167;28;20021;-77
2021/11/02 09:03:24;;;;;;;7.20;2.70;;;15.70;74.00;;;;;;5042512;28;20033;-78
2021/11/02 09:06:03;;;;;;;5.72;2.40;;;15.70;73.80;;;;;;5028688;28;20075;-80
2021/11/02 09:08:30;;;;;;;6.30;2.78;;;15.70;73.70;;;;;;5035092;28;20143;-78
2021/11/02 09:11:00;;;;;;;6.03;2.75;;;15.70;73.60;;;;;;5033877;28;20033;-76
2021/11/02 09:13:25;;;;;;;5.45;2.47;;;15.70;73.40;;;;;;5040568;28;20056;-77
2021/11/02 09:15:56;;;;;;;5.43;2.60;;;15.70;73.40;;;;;;5044452;28;20059;-77
2021/11/02 09:18:22;;;;;;;6.60;2.83;;;15.70;73.30;;;;;;5044070;28;20078;-77
2021/11/02 09:20:48;;;;;;;6.80;2.63;;;15.70;73.20;;;;;;5037523;28;20029;-77
2021/11/02 09:23:14;;;;;;;7.35;2.90;;;15.70;73.10;;;;;;5059872;28;20335;-77
2021/11/02 09:25:39;;;;;;;6.25;2.63;;;15.70;73.00;;;;;;5035382;28;20022;-78
2021/11/02 09:28:05;;;;;;;5.90;2.78;;;15.80;73.00;;;;;;5037818;28;20031;-78
2021/11/02 09:30:31;;;;;;;8.18;2.67;;;15.70;73.00;;;;;;5035665;28;20109;-83
2021/11/02 09:32:57;;;;;;;6.18;2.58;;;15.70;73.10;;;;;;5038259;28;20565;-76
2021/11/02 09:35:25;;;;;;;4.78;2.63;;;15.70;73.20;;;;;;5035587;28;20025;-82
2021/11/02 09:38:00;;;;;;;6.30;2.55;;;15.60;73.60;;;;;;5056162;28;20033;-78
2021/11/02 09:40:28;;;;;;;7.38;2.60;;;15.60;74.60;;;;;;5064200;28;20025;-78
2021/11/02 09:43:05;;;;;;;10.32;3.03;;;15.50;74.50;;;;;;5048722;28;20440;-79
2021/11/02 09:46:11;;;;;;;5.55;2.42;;;15.50;74.80;;;;;;5046809;28;20029;-76
2021/11/02 09:49:14;;;;;;;6.53;2.90;;;15.50;74.80;;;;;;5048484;28;20497;-78
2021/11/02 09:52:09;;;;;;;7.07;2.95;;;15.40;74.50;;;;;;5047544;28;20039;-78
2021/11/02 09:55:11;;;;;;;7.32;2.58;;;15.40;74.60;;;;;;5044600;28;20095;-78
2021/11/02 09:57:45;;;;;;;6.10;2.55;;;15.40;74.40;;;;;;5047856;28;20079;-78
2021/11/02 10:00:28;;;;;;;5.32;2.40;;;15.40;74.30;;;;;;5043273;28;20025;-81
2021/11/02 10:03:02;;;;;;;8.57;2.72;;;15.30;74.30;;;;;;5032832;28;20471;-76
2021/11/02 10:05:52;;;;;;;7.82;2.88;;;15.30;74.00;;;;;;5031406;28;20499;-78
2021/11/02 10:08:37;;;;;;;7.60;2.60;;;15.30;74.20;;;;;;5033301;28;20140;-77
2021/11/02 10:11:27;;;;;;;8.15;2.78;;;15.40;74.00;;;;;;5036316;28;20059;-77
2021/11/02 10:14:17;;;;;;;5.90;2.53;;;15.40;73.80;;;;;;5052538;28;20025;-76
2021/11/02 10:17:07;;;;;;;5.90;2.50;;;15.50;74.10;;;;;;5050841;28;20033;-77
2021/11/02 10:20:01;;;;;;;7.45;2.67;;;15.60;74.10;;;;;;5047482;28;20059;-78
2021/11/02 10:22:45;;;;;;;5.60;2.25;;;15.70;73.90;;;;;;5052585;28;20028;-77
2021/11/02 10:25:55;;;;;;;5.65;2.30;;;15.70;74.10;;;;;;5051601;28;20058;-77
2021/11/02 10:32:07;;;;;;;6.20;2.47;;;15.80;74.40;;;;;;5048387;28;20051;-81
2021/11/02 10:34:42;;;;;;;6.13;2.35;;;15.80;74.20;;;;;;5040332;28;20025;-78
2021/11/02 10:37:22;;;;;;;7.60;2.50;;;15.70;74.40;;;;;;5030318;28;20086;-84
2021/11/02 10:40:13;;;;;;;7.03;2.50;;;15.70;74.80;;;;;;5044899;28;20025;-80
2021/11/02 10:42:53;;;;;;;6.28;2.35;;;15.60;75.30;;;;;;5028018;28;20490;-76
2021/11/02 10:45:23;;;;;;;4.97;2.40;;;15.50;75.70;;;;;;5029085;28;20357;-79
2021/11/02 10:47:59;;;;;;;4.45;2.22;;;15.60;76.10;;;;;;5044753;28;20542;-80
2021/11/02 10:50:29;;;;;;;7.75;3.00;;;15.50;76.20;;;;;;5029370;28;20105;-78
2021/11/02 10:53:00;;;;;;;5.28;2.47;;;15.50;76.20;;;;;;5045002;28;20034;-77
2021/11/02 10:55:35;;;;;;;6.25;2.47;;;15.50;76.40;;;;;;5031214;28;20420;-80
2021/11/02 10:58:22;;;;;;;18.02;3.78;;;15.50;76.40;;;;;;5031886;28;20022;-80
2021/11/02 11:00:50;;;;;;;7.97;2.50;;;15.50;76.60;;;;;;5031117;28;20021;-79
2021/11/02 11:03:18;;;;;;;10.40;2.70;;;15.50;76.70;;;;;;5038594;28;20024;-78
2021/11/02 11:05:51;;;;;;;7.07;2.42;;;15.50;76.80;;;;;;5051484;28;20036;-77
2021/11/02 11:08:19;;;;;;;6.90;2.38;;;15.50;77.00;;;;;;5061177;28;20135;-78
2021/11/02 11:10:52;;;;;;;8.45;2.50;;;15.40;77.00;;;;;;5051795;28;20033;-79
2021/11/02 11:13:20;;;;;;;7.05;2.67;;;15.40;77.10;;;;;;5048192;28;20455;-79
2021/11/02 11:15:47;;;;;;;9.35;2.80;;;15.40;77.40;;;;;;5047134;28;20029;-81
2021/11/02 11:18:22;;;;;;;8.25;2.30;;;15.40;77.60;;;;;;5048984;28;20040;-79
2021/11/02 11:20:49;;;;;;;6.35;2.33;;;15.40;77.50;;;;;;5047693;28;20140;-78
2021/11/02 11:23:15;;;;;;;6.82;2.40;;;15.50;77.10;;;;;;5049802;28;20514;-81
2021/11/02 11:25:51;;;;;;;11.10;2.65;;;15.60;76.90;;;;;;5045020;28;20033;-79
2021/11/02 11:28:19;;;;;;;13.80;3.10;;;15.60;76.20;;;;;;5085420;22;20047;-78
2021/11/02 11:30:45;;;;;;;7.38;2.70;;;15.70;76.10;;;;;;5072369;28;20021;-80
2021/11/02 11:33:18;;;;;;;9.48;2.70;;;15.70;76.20;;;;;;5071798;28;20025;-81
2021/11/02 11:35:45;;;;;;;10.88;2.67;;;15.70;76.40;;;;;;5071693;28;20083;-80
2021/11/02 11:38:13;;;;;;;6.95;2.85;;;15.70;76.40;;;;;;5072743;28;20122;-79
2021/11/02 11:40:41;;;;;;;8.02;3.10;;;15.70;76.60;;;;;;5072888;28;20025;-80
2021/11/02 11:43:09;;;;;;;7.50;2.63;;;15.70;76.70;;;;;;5073078;28;20105;-79
2021/11/02 11:45:40;;;;;;;6.38;2.75;;;15.60;76.90;;;;;;5072398;28;20021;-80
2021/11/02 11:48:20;;;;;;;8.30;2.90;;;15.60;77.10;;;;;;5072381;28;20573;-79
2021/11/02 11:50:47;;;;;;;10.80;3.22;;;15.60;77.20;;;;;;5072560;28;20032;-79
2021/11/02 11:53:18;;;;;;;5.50;2.78;;;15.50;77.40;;;;;;5072592;28;20082;-80
2021/11/02 11:55:46;;;;;;;9.50;3.10;;;15.50;77.50;;;;;;5072146;28;20050;-80
2021/11/02 11:58:23;;;;;;;6.18;2.63;;;15.50;77.70;;;;;;5073550;28;20044;-80
2021/11/02 12:00:51;;;;;;;8.40;2.88;;;15.50;77.60;;;;;;5072297;28;20142;-80
2021/11/02 12:03:35;;;;;;;8.52;2.80;;;15.50;77.70;;;;;;5073511;28;20096;-79
2021/11/02 12:06:08;;;;;;;6.57;2.90;;;15.50;77.70;;;;;;5072008;28;20024;-80
2021/11/02 12:08:50;;;;;;;7.72;3.05;;;15.50;77.90;;;;;;5072187;28;20031;-79
2021/11/02 12:11:21;;;;;;;8.80;3.05;;;15.50;78.10;;;;;;5072285;28;20063;-80
2021/11/02 12:13:53;;;;;;;5.80;2.73;;;15.40;78.10;;;;;;5073311;28;20070;-80
2021/11/02 12:16:27;;;;;;;5.78;3.10;;;15.40;78.30;;;;;;5072012;28;20335;-79
2021/11/02 12:19:15;;;;;;;7.22;2.97;;;15.40;78.40;;;;;;5071662;28;20031;-80
2021/11/02 12:21:43;;;;;;;4.82;2.78;;;15.40;78.40;;;;;;5072480;28;20025;-79
2021/11/02 12:24:15;;;;;;;5.97;2.83;;;15.30;78.50;;;;;;5070957;28;20547;-80
2021/11/02 12:26:41;;;;;;;7.35;3.28;;;15.30;78.50;;;;;;5072827;28;20086;-80
2021/11/02 12:29:10;;;;;;;5.60;3.30;;;15.30;78.60;;;;;;5071256;28;20044;-81
2021/11/02 12:31:36;;;;;;;6.72;3.25;;;15.40;78.60;;;;;;5068981;28;20017;-80
2021/11/02 12:34:10;;;;;;;6.28;3.85;;;15.30;78.70;;;;;;5072522;28;20027;-81
2021/11/02 12:36:44;;;;;;;5.65;3.20;;;15.30;78.70;;;;;;5071298;28;20017;-80
2021/11/02 12:39:11;;;;;;;5.80;3.15;;;15.30;78.50;;;;;;5071451;28;20024;-79
2021/11/02 12:41:48;;;;;;;5.75;3.00;;;15.30;78.70;;;;;;5071569;28;20074;-81
2021/11/02 12:44:15;;;;;;;5.35;2.97;;;15.40;78.60;;;;;;5071381;28;20397;-79
2021/11/02 12:46:46;;;;;;;7.43;3.17;;;15.40;78.40;;;;;;5072415;28;20017;-80
2021/11/02 12:49:17;;;;;;;6.43;3.30;;;15.40;78.40;;;;;;5070555;28;20029;-79
2021/11/02 12:51:51;;;;;;;6.15;3.28;;;15.40;78.30;;;;;;5071095;28;20157;-80
2021/11/02 12:54:20;;;;;;;6.43;2.83;;;15.40;78.30;;;;;;5064974;28;20051;-80
2021/11/02 12:57:01;;;;;;;6.78;3.08;;;15.50;78.50;;;;;;5070688;28;20022;-80
2021/11/02 12:59:35;;;;;;;6.43;3.10;;;15.40;78.40;;;;;;5071251;28;20032;-80
2021/11/02 13:02:15;;;;;;;5.07;3.08;;;15.50;78.50;;;;;;5071198;28;20067;-79
2021/11/02 13:04:41;;;;;;;6.47;3.22;;;15.50;78.80;;;;;;5072422;28;20028;-79
2021/11/02 13:07:11;;;;;;;6.90;3.20;;;15.50;78.30;;;;;;5070781;28;20082;-81
2021/11/02 13:09:37;;;;;;;4.88;2.92;;;15.50;78.30;;;;;;5071024;28;20032;-79
2021/11/02 13:12:07;;;;;;;5.97;3.22;;;15.50;78.40;;;;;;5071387;28;20085;-80
2021/11/02 13:14:38;;;;;;;5.72;2.92;;;15.50;79.10;;;;;;5072370;28;20027;-80
2021/11/02 13:17:07;;;;;;;6.40;3.20;;;15.40;78.90;;;;;;5072024;28;20028;-79
2021/11/02 13:19:41;;;;;;;5.47;3.22;;;15.40;79.20;;;;;;5071618;28;20049;-80
2021/11/02 13:22:12;;;;;;;6.40;3.15;;;15.30;79.50;;;;;;5072199;28;20478;-79
2021/11/02 13:24:38;;;;;;;6.15;3.00;;;15.40;79.70;;;;;;5071160;28;20029;-79
2021/11/02 13:27:07;;;;;;;5.47;3.17;;;15.30;79.70;;;;;;5070692;28;20031;-79
2021/11/02 13:29:33;;;;;;;6.82;3.20;;;15.30;79.80;;;;;;5070459;28;20440;-79
2021/11/02 13:32:03;;;;;;;5.78;2.85;;;15.30;80.00;;;;;;5070770;28;20131;-80
2021/11/02 13:34:35;;;;;;;4.05;2.83;;;15.30;80.00;;;;;;5070605;28;20533;-80
2021/11/02 13:37:14;;;;;;;4.05;2.70;;;15.30;80.10;;;;;;5070500;28;20035;-80
2021/11/02 13:40:00;;;;;;;5.35;2.78;;;15.30;80.10;;;;;;5070807;28;20021;-80
2021/11/02 13:42:46;;;;;;;4.80;2.88;;;15.30;80.20;;;;;;5070812;28;20029;-79
2021/11/02 13:45:14;;;;;;;5.70;3.00;;;15.30;80.30;;;;;;5070450;28;20029;-80
2021/11/02 13:47:41;;;;;;;5.63;2.85;;;15.30;80.60;;;;;;5070468;28;20021;-80
2021/11/02 13:50:07;;;;;;;4.85;2.67;;;15.20;80.60;;;;;;5070644;28;20028;-80
2021/11/02 13:52:33;;;;;;;6.20;2.92;;;15.30;80.80;;;;;;5070425;28;20162;-79
2021/11/02 13:55:01;;;;;;;5.43;2.60;;;15.20;80.60;;;;;;5070809;28;20036;-80
2021/11/02 13:57:27;;;;;;;5.32;2.80;;;15.20;80.70;;;;;;5070456;28;20389;-80
2021/11/02 13:59:52;;;;;;;6.05;2.97;;;15.20;80.80;;;;;;5070440;28;20021;-79
2021/11/02 14:02:18;;;;;;;5.07;2.75;;;15.20;80.80;;;;;;5070685;28;20024;-80
2021/11/02 14:04:48;;;;;;;4.88;2.50;;;15.20;80.80;;;;;;5070541;28;20020;-79
2021/11/02 14:07:15;;;;;;;5.35;2.83;;;15.20;80.90;;;;;;5070008;28;20035;-80
2021/11/02 14:09:45;;;;;;;4.85;2.80;;;15.20;80.80;;;;;;5070460;28;20052;-81
2021/11/02 14:12:32;;;;;;;5.07;2.60;;;15.20;80.80;;;;;;5070476;28;20081;-80
2021/11/02 14:15:09;;;;;;;5.68;2.53;;;15.20;80.80;;;;;;5071662;28;20504;-78
2021/11/02 14:17:36;;;;;;;4.05;2.50;;;15.20;80.90;;;;;;5070188;28;20081;-80
2021/11/02 14:20:02;;;;;;;4.97;2.53;;;15.20;81.10;;;;;;5070394;28;20108;-80
2021/11/02 14:22:49;;;;;;;4.57;2.40;;;15.20;81.00;;;;;;5070233;28;20089;-79
2021/11/02 14:25:19;;;;;;;5.35;2.78;;;15.20;81.10;;;;;;5070162;28;20021;-80
2021/11/02 14:27:47;;;;;;;6.32;2.40;;;15.20;81.10;;;;;;5068400;28;20033;-80
2021/11/02 14:30:31;;;;;;;6.47;2.40;;;15.20;81.30;;;;;;5070110;28;20478;-80
2021/11/02 14:33:07;;;;;;;5.65;2.40;;;15.10;81.20;;;;;;5068553;28;20379;-79
2021/11/02 14:35:46;;;;;;;4.95;2.30;;;15.10;81.30;;;;;;5070522;28;20025;-81
2021/11/02 14:38:13;;;;;;;5.00;2.20;;;15.10;81.30;;;;;;5069543;28;20413;-82
2021/11/02 14:40:47;;;;;;;5.47;2.40;;;15.20;81.30;;;;;;5070189;28;20371;-79
2021/11/02 14:43:13;;;;;;;5.78;2.20;;;15.10;81.30;;;;;;5070150;28;20481;-79
2021/11/02 14:45:50;;;;;;;4.53;2.50;;;15.10;81.30;;;;;;5071024;28;20040;-79
2021/11/02 14:48:36;;;;;;;5.95;2.72;;;15.10;81.40;;;;;;5073062;28;20028;-80
2021/11/02 14:51:08;;;;;;;6.05;2.30;;;15.10;81.50;;;;;;5074861;28;20031;-80
2021/11/02 14:53:38;;;;;;;3.78;2.30;;;15.10;81.60;;;;;;5073728;28;20028;-80
2021/11/02 14:56:07;;;;;;;4.00;2.17;;;15.10;81.60;;;;;;5073284;28;20507;-81
2021/11/02 14:58:39;;;;;;;5.13;2.25;;;15.10;81.70;;;;;;5073491;28;20020;-81
2021/11/02 15:01:10;;;;;;;5.10;1.88;;;15.10;81.70;;;;;;5074746;28;20021;-79
2021/11/02 15:03:37;;;;;;;4.30;2.08;;;15.10;81.70;;;;;;5073478;28;20021;-80
2021/11/02 15:06:09;;;;;;;5.65;2.08;;;15.10;81.70;;;;;;5073179;28;20033;-80
2021/11/02 15:08:38;;;;;;;;;;;15.10;81.80;;;;;;5073727;28;20021;-79
2021/11/02 15:11:12;;;;;;;3.50;1.90;;;15.10;81.80;;;;;;5073456;28;19912;-80
2021/11/02 15:13:52;;;;;;;4.15;2.05;;;15.10;81.70;;;;;;5073454;28;20031;-79
2021/11/02 15:16:19;;;;;;;3.58;2.00;;;15.10;81.70;;;;;;5073074;28;20027;-80
2021/11/02 15:18:46;;;;;;;4.75;1.90;;;15.00;81.80;;;;;;5073199;28;20029;-80
2021/11/02 15:21:17;;;;;;;6.00;2.30;;;15.10;81.60;;;;;;5073159;28;20032;-79
2021/11/02 15:23:46;;;;;;;4.30;2.00;;;15.00;81.40;;;;;;5073227;28;20024;-80
2021/11/02 15:26:14;;;;;;;4.63;1.83;;;15.10;81.30;;;;;;5072796;28;20032;-80
2021/11/02 15:28:46;;;;;;;3.85;1.90;;;15.10;81.20;;;;;;5074201;28;20036;-79
2021/11/02 15:31:13;;;;;;;3.80;1.90;;;15.10;81.10;;;;;;5072941;28;20037;-80
2021/11/02 15:33:42;;;;;;;4.53;2.10;;;15.10;81.00;;;;;;5072904;28;20036;-81
2021/11/02 15:36:22;;;;;;;4.53;1.90;;;15.10;80.90;;;;;;5072605;28;20029;-80
2021/11/02 15:39:03;;;;;;;4.47;2.00;;;15.10;80.90;;;;;;5072429;28;20118;-80
2021/11/02 15:41:30;;;;;;;3.22;1.70;;;15.10;80.80;;;;;;5074131;28;20555;-79
2021/11/02 15:44:03;;;;;;;5.10;2.10;;;15.10;80.80;;;;;;5073697;28;20039;-80
2021/11/02 15:46:34;;;;;;;4.88;1.83;;;15.10;80.80;;;;;;5072693;28;20021;-79
2021/11/02 15:49:03;;;;;;;5.57;1.80;;;15.10;80.10;;;;;;5073187;28;20478;-81
2021/11/02 15:51:38;;;;;;;5.15;1.63;;;15.10;79.60;;;;;;5073005;28;20274;-80
2021/11/02 15:54:12;;;;;;;5.45;1.88;;;15.10;79.40;;;;;;5073202;28;20111;-77
2021/11/02 15:56:39;;;;;;;4.88;1.83;;;15.00;79.50;;;;;;5072809;28;20021;-78
2021/11/02 15:59:06;;;;;;;5.40;1.45;;;15.00;79.60;;;;;;5072594;28;20070;-79
2021/11/02 16:01:48;;;;;;;4.65;1.63;;;15.00;79.90;;;;;;5072904;28;20029;-79
2021/11/02 16:04:21;;;;;;;5.40;1.95;;;15.00;80.10;;;;;;5072923;28;20108;-79
2021/11/02 16:07:07;;;;;;;5.95;1.77;;;14.90;80.20;;;;;;5072577;28;20103;-78
2021/11/02 16:09:47;;;;;;;13.60;2.20;;;14.90;80.30;;;;;;5072615;28;20021;-78
2021/11/02 16:12:14;;;;;;;9.38;2.38;;;14.90;80.50;;;;;;5072649;28;20029;-79
2021/11/02 16:14:54;;;;;;;9.35;1.80;;;14.90;80.60;;;;;;5072485;28;20021;-78
2021/11/02 16:17:22;;;;;;;7.40;1.60;;;14.90;80.70;;;;;;5072055;28;20024;-78
2021/11/02 16:19:54;;;;;;;6.97;1.75;;;14.90;80.70;;;;;;5072538;28;20027;-79
2021/11/02 16:22:20;;;;;;;4.97;2.00;;;14.90;80.80;;;;;;5072453;28;20394;-79
2021/11/02 16:24:59;;;;;;;5.05;1.73;;;14.90;80.80;;;;;;5073480;28;20036;-79
2021/11/02 16:27:25;;;;;;;5.38;1.42;;;14.90;81.00;;;;;;5073188;28;20426;-78
2021/11/02 16:29:50;;;;;;;4.88;1.77;;;14.90;80.90;;;;;;5072311;28;20059;-79
2021/11/02 16:32:22;;;;;;;4.50;1.77;;;14.80;80.90;;;;;;5072374;28;20120;-77
2021/11/02 16:34:47;;;;;;;3.55;1.50;;;14.90;81.00;;;;;;5072160;28;20111;-80
2021/11/02 16:37:32;;;;;;;6.05;1.50;;;14.80;80.90;;;;;;5071927;28;20123;-79
2021/11/02 16:40:20;;;;;;;8.18;1.65;;;14.80;80.70;;;;;;5072155;28;20020;-78
2021/11/02 16:43:00;;;;;;;6.72;1.55;;;14.80;80.60;;;;;;5072084;28;20013;-78
2021/11/02 16:45:31;;;;;;;48.15;5.32;;;14.80;80.60;;;;;;5063565;28;20017;-77
2021/11/02 16:48:03;;;;;;;57.15;6.28;;;14.80;80.70;;;;;;5051952;28;20128;-79
2021/11/02 16:50:34;;;;;;;42.40;6.38;;;14.80;80.80;;;;;;5064351;28;20027;-78
2021/11/02 16:53:14;;;;;;;43.30;5.82;;;14.80;79.70;;;;;;5054152;28;20355;-78
2021/11/02 16:55:42;;;;;;;39.03;5.93;;;14.80;79.30;;;;;;5054160;28;20021;-77
2021/11/02 16:58:22;;;;;;;28.58;3.40;;;14.80;79.40;;;;;;5058154;28;20058;-78
2021/11/02 17:00:49;;;;;;;19.42;3.55;;;14.80;76.40;;;;;;5065828;28;20060;-78
2021/11/02 17:03:23;;;;;;;22.88;3.83;;;14.70;75.80;;;;;;5051891;28;20029;-79
2021/11/02 17:05:49;;;;;;;22.23;4.13;;;14.70;76.70;;;;;;5062334;28;20037;-81
2021/11/02 17:08:15;;;;;;;20.52;3.63;;;14.70;77.20;;;;;;5071583;28;20028;-81
2021/11/02 17:10:41;;;;;;;16.45;3.17;;;14.70;77.70;;;;;;5071566;28;20024;-82
2021/11/02 17:13:09;;;;;;;26.50;3.38;;;14.70;78.10;;;;;;5054008;28;20140;-81
2021/11/02 17:15:50;;;;;;;15.10;2.80;;;14.70;78.40;;;;;;5051246;28;20025;-80
2021/11/02 17:18:18;;;;;;;12.75;3.33;;;14.80;78.80;;;;;;5050705;28;20025;-80
2021/11/02 17:21:03;;;;;;;19.83;3.63;;;14.80;78.90;;;;;;5050818;28;20029;-81
2021/11/02 17:23:29;;;;;;;16.48;4.35;;;14.70;79.00;;;;;;5051962;28;20576;-81
2021/11/02 17:25:54;;;;;;;11.45;4.32;;;14.80;79.30;;;;;;5050880;28;20259;-80
2021/11/02 17:28:20;;;;;;;21.17;5.43;;;14.70;79.30;;;;;;5115182;22;20040;-75
2021/11/02 17:30:46;;;;;;;15.40;5.53;;;14.80;79.40;;;;;;5090877;28;20024;-74
2021/11/02 17:33:12;;;;;;;12.27;4.88;;;14.80;79.50;;;;;;5090777;28;20085;-75
2021/11/02 17:35:38;;;;;;;13.55;4.53;;;14.80;79.50;;;;;;5090565;28;20393;-75
2021/11/02 17:38:04;;;;;;;9.23;4.72;;;14.70;79.50;;;;;;5090492;28;20138;-75
2021/11/02 17:40:30;;;;;;;10.18;4.00;;;14.80;79.60;;;;;;5091879;28;20047;-75
2021/11/02 17:42:58;;;;;;;14.27;4.20;;;14.80;79.60;;;;;;5091871;28;20399;-75
2021/11/02 17:45:26;;;;;;;13.63;4.68;;;14.80;79.60;;;;;;5090337;28;20054;-77
2021/11/02 17:47:53;;;;;;;10.10;4.07;;;14.80;79.60;;;;;;5090449;28;20024;-76
2021/11/02 17:50:23;;;;;;;10.57;4.22;;;14.80;79.60;;;;;;5090540;28;20413;-75
2021/11/02 17:52:49;;;;;;;9.50;4.20;;;14.70;79.60;;;;;;5090527;28;20433;-76